createdAt,value
2023-05-17T00:01:01.952Z,7.80
2023-05-17T00:03:28.854Z,7.80
2023-05-17T00:05:56.009Z,7.70
2023-05-17T00:08:22.974Z,7.80
2023-05-17T00:10:49.944Z,7.80
2023-05-17T00:13:16.912Z,7.50
2023-05-17T00:15:43.804Z,7.70
2023-05-17T00:18:10.810Z,7.60
2023-05-17T00:20:37.784Z,7.70
2023-05-17T00:23:04.854Z,7.60
2023-05-17T00:25:31.911Z,7.70
2023-05-17T00:27:58.802Z,7.50
2023-05-17T00:30:25.725Z,7.60
2023-05-17T00:32:52.757Z,7.40
2023-05-17T00:35:19.820Z,7.40
2023-05-17T00:37:48.139Z,7.40
2023-05-17T00:40:16.371Z,7.40
2023-05-17T00:42:43.486Z,7.30
2023-05-17T00:45:10.977Z,7.50
2023-05-17T00:47:38.199Z,7.30
2023-05-17T00:50:06.316Z,7.20
2023-05-17T00:52:33.619Z,7.20
2023-05-17T00:55:00.730Z,7.20
2023-05-17T00:57:29.273Z,7.20
2023-05-17T00:59:56.758Z,7.20
2023-05-17T01:02:24.669Z,7.20
2023-05-17T01:04:51.746Z,7.00
2023-05-17T01:07:18.846Z,7.10
2023-05-17T01:09:47.620Z,7.20
2023-05-17T01:12:43.375Z,7.40
2023-05-17T01:15:25.859Z,7.10
2023-05-17T01:17:59.611Z,7.10
2023-05-17T01:20:37.470Z,7.00
2023-05-17T01:23:22.088Z,7.10
2023-05-17T01:26:14.032Z,7.10
2023-05-17T01:28:44.047Z,7.00
2023-05-17T01:31:12.281Z,7.30
2023-05-17T01:33:40.007Z,7.10
2023-05-17T01:36:08.630Z,7.10
2023-05-17T01:38:35.835Z,7.00
2023-05-17T01:41:36.522Z,7.30
2023-05-17T01:44:12.128Z,6.90
2023-05-17T01:46:43.030Z,7.00
2023-05-17T01:49:18.065Z,7.10
2023-05-17T01:51:52.821Z,7.10
2023-05-17T01:54:26.585Z,6.90
2023-05-17T01:56:58.830Z,6.80
2023-05-17T01:59:27.169Z,6.80
2023-05-17T02:02:06.468Z,6.90
2023-05-17T02:04:33.589Z,6.90
2023-05-17T02:07:02.705Z,6.80
2023-05-17T02:09:29.826Z,7.00
2023-05-17T02:11:57.041Z,6.90
2023-05-17T02:14:23.974Z,6.80
2023-05-17T02:16:51.098Z,6.80
2023-05-17T02:19:18.108Z,6.90
2023-05-17T02:21:45.048Z,6.80
2023-05-17T02:24:12.038Z,6.70
2023-05-17T02:26:42.840Z,6.70
2023-05-17T02:29:11.270Z,7.00
2023-05-17T02:31:38.277Z,6.70
2023-05-17T02:34:05.351Z,6.70
2023-05-17T02:36:32.682Z,6.90
2023-05-17T02:38:59.862Z,6.80
2023-05-17T02:41:27.144Z,6.70
2023-05-17T02:43:54.059Z,6.60
2023-05-17T02:46:21.687Z,6.70
2023-05-17T02:48:48.639Z,6.60
2023-05-17T02:51:15.814Z,6.70
2023-05-17T02:53:43.085Z,6.60
2023-05-17T02:56:10.084Z,6.60
2023-05-17T02:58:37.293Z,6.50
2023-05-17T03:01:04.484Z,6.70
2023-05-17T03:03:31.815Z,6.50
2023-05-17T03:06:04.793Z,6.60
2023-05-17T03:08:32.550Z,6.40
2023-05-17T03:11:01.569Z,6.40
2023-05-17T03:13:29.151Z,6.30
2023-05-17T03:15:56.115Z,6.30
2023-05-17T03:18:23.394Z,6.50
2023-05-17T03:20:51.358Z,6.40
2023-05-17T03:23:18.722Z,6.60
2023-05-17T03:25:52.862Z,6.10
2023-05-17T03:28:20.664Z,6.20
2023-05-17T03:30:47.968Z,6.50
2023-05-17T03:33:15.574Z,6.50
2023-05-17T03:35:42.655Z,6.00
2023-05-17T03:38:09.644Z,6.00
2023-05-17T03:40:36.776Z,5.90
2023-05-17T03:43:04.014Z,6.20
2023-05-17T03:45:31.272Z,5.80
2023-05-17T03:47:58.315Z,5.90
2023-05-17T03:50:26.752Z,5.90
2023-05-17T03:52:53.724Z,5.80
2023-05-17T03:55:20.814Z,5.70
2023-05-17T03:57:47.914Z,5.70
2023-05-17T04:00:21.217Z,5.90
2023-05-17T04:02:52.427Z,5.70
2023-05-17T04:05:20.324Z,5.70
2023-05-17T04:07:48.732Z,5.60
2023-05-17T04:10:16.348Z,5.60
2023-05-17T04:12:45.382Z,5.50
2023-05-17T04:15:12.479Z,5.60
2023-05-17T04:17:41.062Z,5.50
2023-05-17T04:20:09.356Z,5.60
2023-05-17T04:22:36.858Z,5.60
2023-05-17T04:25:04.286Z,5.50
2023-05-17T04:27:32.158Z,5.50
2023-05-17T04:29:59.300Z,5.50
2023-05-17T04:32:28.096Z,5.70
2023-05-17T04:34:56.562Z,5.50
2023-05-17T04:37:24.291Z,5.50
2023-05-17T04:39:54.784Z,5.60
2023-05-17T04:42:22.070Z,5.50
2023-05-17T04:44:54.530Z,5.80
2023-05-17T04:47:21.663Z,5.50
2023-05-17T04:49:48.910Z,5.50
2023-05-17T04:52:16.301Z,5.40
2023-05-17T04:54:46.107Z,5.40
2023-05-17T04:57:13.597Z,5.40
2023-05-17T04:59:54.626Z,5.40
2023-05-17T05:02:22.006Z,5.70
2023-05-17T05:04:49.101Z,5.80
2023-05-17T05:07:17.169Z,5.80
2023-05-17T05:09:45.923Z,5.50
2023-05-17T05:12:14.397Z,5.50
2023-05-17T05:14:42.538Z,5.40
2023-05-17T05:17:10.213Z,5.30
2023-05-17T05:19:38.894Z,5.60
2023-05-17T05:22:06.972Z,5.70
2023-05-17T05:24:37.845Z,5.50
2023-05-17T05:27:07.395Z,5.60
2023-05-17T05:29:35.796Z,5.50
2023-05-17T05:32:02.954Z,5.50
2023-05-17T05:34:33.344Z,5.80
2023-05-17T05:37:00.512Z,5.80
2023-05-17T05:39:28.072Z,5.70
2023-05-17T05:41:55.556Z,5.70
2023-05-17T05:44:24.598Z,6.30
2023-05-17T05:46:53.544Z,5.90
2023-05-17T05:49:20.936Z,6.00
2023-05-17T05:51:48.696Z,6.10
2023-05-17T05:54:17.263Z,6.10
2023-05-17T05:56:45.110Z,5.90
2023-05-17T05:59:14.103Z,6.10
2023-05-17T06:01:41.696Z,6.30
2023-05-17T06:04:08.923Z,6.30
2023-05-17T06:06:36.235Z,6.00
2023-05-17T06:09:04.140Z,6.20
2023-05-17T06:11:32.440Z,6.30
2023-05-17T06:13:59.544Z,6.40
2023-05-17T06:16:26.579Z,6.50
2023-05-17T06:18:53.573Z,6.20
2023-05-17T06:21:20.592Z,6.50
2023-05-17T06:23:47.610Z,6.30
2023-05-17T06:26:14.953Z,6.60
2023-05-17T06:28:41.961Z,6.50
2023-05-17T06:31:08.903Z,7.00
2023-05-17T06:33:36.015Z,6.30
2023-05-17T06:38:30.372Z,7.10
2023-05-17T06:40:58.699Z,6.50
2023-05-17T06:43:25.838Z,6.60
2023-05-17T06:45:52.982Z,6.70
2023-05-17T06:48:20.076Z,7.00
2023-05-17T06:50:47.375Z,6.80
2023-05-17T06:53:14.480Z,7.00
2023-05-17T06:55:43.297Z,6.80
2023-05-17T06:58:10.358Z,6.90
2023-05-17T07:00:37.801Z,7.00
2023-05-17T07:03:04.902Z,7.20
2023-05-17T07:05:32.177Z,7.20
2023-05-17T07:07:59.710Z,7.00
2023-05-17T07:10:26.687Z,7.00
2023-05-17T07:12:53.643Z,7.10
2023-05-17T07:15:20.907Z,7.00
2023-05-17T07:17:48.095Z,7.30
2023-05-17T07:20:15.120Z,7.60
2023-05-17T07:22:42.572Z,7.00
2023-05-17T07:25:10.236Z,7.20
2023-05-17T07:27:37.292Z,7.20
2023-05-17T07:30:04.808Z,7.40
2023-05-17T07:32:32.774Z,7.30
2023-05-17T07:34:59.804Z,7.50
2023-05-17T07:37:26.673Z,7.40
2023-05-17T07:39:53.872Z,7.20
2023-05-17T07:42:20.908Z,7.20
2023-05-17T07:44:49.869Z,7.80
2023-05-17T07:47:17.050Z,7.60
2023-05-17T07:49:44.184Z,7.40
2023-05-17T07:52:11.323Z,7.60
2023-05-17T07:54:39.394Z,7.60
2023-05-17T07:57:06.542Z,7.60
2023-05-17T07:59:33.739Z,8.30
2023-05-17T08:02:00.819Z,7.70
2023-05-17T08:04:27.797Z,8.70
2023-05-17T08:06:55.786Z,8.30
2023-05-17T08:09:22.759Z,7.90
2023-05-17T08:11:49.704Z,7.70
2023-05-17T08:14:17.492Z,7.80
2023-05-17T08:16:46.882Z,7.80
2023-05-17T08:19:15.456Z,8.00
2023-05-17T08:21:43.791Z,8.00
2023-05-17T08:24:11.931Z,7.40
2023-05-17T08:26:39.263Z,7.60
2023-05-17T08:29:06.562Z,7.60
2023-05-17T08:31:33.876Z,7.70
2023-05-17T08:34:01.273Z,8.10
2023-05-17T08:36:28.556Z,8.10
2023-05-17T08:38:55.653Z,7.70
2023-05-17T08:41:22.895Z,8.00
2023-05-17T08:43:51.073Z,8.20
2023-05-17T08:46:21.813Z,8.00
2023-05-17T08:48:56.174Z,8.10
2023-05-17T08:51:23.502Z,8.10
2023-05-17T08:53:50.874Z,8.10
2023-05-17T08:56:19.680Z,8.00
2023-05-17T09:01:19.380Z,8.10
2023-05-17T09:03:51.367Z,8.40
2023-05-17T09:06:21.741Z,8.10
2023-05-17T09:08:52.990Z,8.10
2023-05-17T09:11:26.988Z,8.10
2023-05-17T09:13:54.301Z,8.50
2023-05-17T09:16:22.440Z,8.70
2023-05-17T09:18:56.840Z,8.60
2023-05-17T09:21:24.784Z,8.80
2023-05-17T09:24:04.643Z,8.40
2023-05-17T09:26:44.639Z,8.20
2023-05-17T09:29:13.445Z,8.50
2023-05-17T09:31:41.589Z,8.50
2023-05-17T09:34:09.442Z,8.40
2023-05-17T09:36:38.440Z,8.60
2023-05-17T09:39:10.783Z,8.90
2023-05-17T09:41:48.385Z,8.40
2023-05-17T09:44:15.990Z,8.70
2023-05-17T09:46:46.220Z,8.60
2023-05-17T09:49:14.268Z,8.90
2023-05-17T09:51:43.610Z,8.90
2023-05-17T09:54:11.260Z,9.00
2023-05-17T09:56:38.486Z,9.60
2023-05-17T09:59:12.176Z,9.30
2023-05-17T10:01:41.802Z,9.20
2023-05-17T10:04:10.609Z,9.80
2023-05-17T10:09:14.596Z,9.40
2023-05-17T10:11:46.376Z,9.20
2023-05-17T10:14:35.187Z,9.00
2023-05-17T10:17:03.704Z,9.10
2023-05-17T10:19:31.674Z,9.10
2023-05-17T10:22:08.318Z,9.30
2023-05-17T10:24:46.721Z,9.30
2023-05-17T10:27:14.077Z,10.40
2023-05-17T10:29:42.148Z,9.40
2023-05-17T10:32:09.493Z,9.60
2023-05-17T10:34:39.642Z,9.40
2023-05-17T10:37:08.005Z,9.30
2023-05-17T10:39:38.512Z,9.50
2023-05-17T10:42:14.693Z,9.40
2023-05-17T10:44:42.960Z,9.30
2023-05-17T10:47:11.793Z,9.50
2023-05-17T10:49:41.510Z,9.60
2023-05-17T10:52:17.716Z,9.50
2023-05-17T10:54:47.813Z,9.20
2023-05-17T10:57:50.058Z,9.60
2023-05-17T11:00:31.348Z,9.50
2023-05-17T11:03:21.334Z,9.70
2023-05-17T11:06:13.110Z,9.50
2023-05-17T11:09:15.290Z,9.50
2023-05-17T11:12:08.267Z,9.60
2023-05-17T11:14:48.156Z,9.70
2023-05-17T11:17:18.016Z,9.70
2023-05-17T11:20:12.402Z,9.70
2023-05-17T11:22:43.430Z,9.70
2023-05-17T11:25:13.028Z,9.80
2023-05-17T11:27:47.956Z,10.10
2023-05-17T11:30:30.948Z,9.80
2023-05-17T11:33:03.728Z,9.80
2023-05-17T11:35:37.960Z,9.80
2023-05-17T11:38:17.721Z,10.00
2023-05-17T11:40:46.360Z,9.90
2023-05-17T11:43:30.758Z,10.10
2023-05-17T11:46:01.432Z,10.10
2023-05-17T11:48:30.674Z,9.90
2023-05-17T11:51:00.665Z,10.10
2023-05-17T11:53:31.829Z,10.00
2023-05-17T11:56:04.618Z,10.00
2023-05-17T11:58:32.670Z,10.10
2023-05-17T12:00:59.618Z,10.00
2023-05-17T12:03:31.640Z,9.70
2023-05-17T12:06:10.120Z,10.10
2023-05-17T12:08:38.802Z,9.90
2023-05-17T12:11:07.361Z,10.30
2023-05-17T12:13:35.821Z,10.20
2023-05-17T12:16:09.868Z,10.40
2023-05-17T12:18:45.443Z,10.30
2023-05-17T12:21:16.512Z,10.20
2023-05-17T12:23:47.805Z,10.30
2023-05-17T12:26:18.213Z,10.20
2023-05-17T12:28:58.327Z,10.20
2023-05-17T12:31:30.216Z,10.30
2023-05-17T12:33:59.398Z,10.10
2023-05-17T12:36:29.264Z,10.60
2023-05-17T12:38:56.897Z,10.40
2023-05-17T12:41:26.532Z,10.60
2023-05-17T12:44:06.186Z,10.30
2023-05-17T12:46:40.757Z,10.40
2023-05-17T12:49:12.190Z,10.10
2023-05-17T12:51:44.192Z,10.10
2023-05-17T12:54:30.366Z,10.10
2023-05-17T12:56:57.538Z,10.20
2023-05-17T12:59:29.291Z,10.10
2023-05-17T13:01:58.214Z,10.10
2023-05-17T13:04:34.554Z,10.30
2023-05-17T13:07:03.533Z,10.10
2023-05-17T13:09:32.492Z,10.30
2023-05-17T13:12:01.454Z,10.20
2023-05-17T13:14:46.481Z,10.00
2023-05-17T13:17:24.670Z,10.10
2023-05-17T13:19:51.897Z,10.10
2023-05-17T13:22:19.256Z,10.20
2023-05-17T13:24:46.369Z,10.20
2023-05-17T13:27:13.545Z,10.20
2023-05-17T13:29:42.236Z,10.10
2023-05-17T13:32:11.894Z,10.20
2023-05-17T13:34:40.194Z,10.20
2023-05-17T13:37:11.188Z,10.20
2023-05-17T13:39:39.687Z,10.00
2023-05-17T13:42:06.931Z,10.20
2023-05-17T13:44:33.996Z,10.10
2023-05-17T13:47:01.025Z,10.40
2023-05-17T13:49:28.646Z,10.10
2023-05-17T13:51:55.708Z,10.20
2023-05-17T13:54:25.465Z,10.20
2023-05-17T13:56:53.753Z,9.90
2023-05-17T13:59:20.742Z,10.20
2023-05-17T14:01:47.705Z,10.00
2023-05-17T14:04:14.699Z,10.00
2023-05-17T14:06:42.417Z,9.90
2023-05-17T14:09:10.257Z,10.00
2023-05-17T14:11:37.171Z,10.10
2023-05-17T14:14:04.446Z,10.20
2023-05-17T14:16:31.913Z,10.00
2023-05-17T14:19:01.000Z,10.20
2023-05-17T14:21:29.735Z,9.90
2023-05-17T14:23:56.808Z,10.20
2023-05-17T14:26:23.863Z,10.00
2023-05-17T14:28:54.042Z,9.90
2023-05-17T14:31:21.359Z,9.90
2023-05-17T14:33:48.571Z,9.80
2023-05-17T14:36:15.743Z,10.00
2023-05-17T14:38:42.655Z,10.00
2023-05-17T14:41:09.616Z,10.00
2023-05-17T14:43:36.728Z,10.00
2023-05-17T14:46:04.896Z,10.00
2023-05-17T14:48:33.071Z,9.90
2023-05-17T14:51:00.115Z,10.00
2023-05-17T14:53:29.776Z,9.80
2023-05-17T14:55:59.814Z,9.80
2023-05-17T14:58:28.166Z,9.70
2023-05-17T15:01:05.568Z,9.70
2023-05-17T15:03:35.326Z,9.90
2023-05-17T15:06:05.676Z,9.80
2023-05-17T15:08:35.233Z,9.80
2023-05-17T15:11:02.249Z,10.20
2023-05-17T15:13:29.138Z,10.10
2023-05-17T15:15:56.067Z,9.70
2023-05-17T15:18:23.017Z,9.90
2023-05-17T15:20:49.969Z,9.90
2023-05-17T15:23:16.909Z,9.80
2023-05-17T15:25:43.903Z,9.80
2023-05-17T15:28:10.859Z,10.00
2023-05-17T15:30:37.834Z,10.10
2023-05-17T15:33:04.968Z,9.90
2023-05-17T15:35:32.021Z,9.90
2023-05-17T15:38:01.135Z,10.00
2023-05-17T15:40:28.099Z,9.70
2023-05-17T15:42:55.043Z,9.60
2023-05-17T15:45:22.106Z,9.70
2023-05-17T15:47:49.598Z,9.70
2023-05-17T15:50:17.325Z,9.70
2023-05-17T15:52:44.273Z,9.60
2023-05-17T15:55:11.357Z,9.80
2023-05-17T15:57:38.290Z,9.70
2023-05-17T16:00:05.883Z,9.80
2023-05-17T16:02:32.788Z,9.70
2023-05-17T16:05:01.908Z,9.70
2023-05-17T16:07:31.273Z,9.80
2023-05-17T16:09:58.261Z,9.50
2023-05-17T16:12:25.148Z,9.70
2023-05-17T16:14:53.228Z,9.70
2023-05-17T16:17:20.180Z,9.70
2023-05-17T16:19:47.160Z,9.70
2023-05-17T16:22:14.146Z,9.60
2023-05-17T16:24:41.959Z,9.60
2023-05-17T16:27:08.900Z,9.80
2023-05-17T16:29:39.991Z,9.50
2023-05-17T16:32:08.355Z,9.80
2023-05-17T16:34:36.183Z,10.00
2023-05-17T16:37:04.763Z,9.90
2023-05-17T16:39:32.522Z,9.70
2023-05-17T16:41:59.533Z,9.70
2023-05-17T16:44:26.473Z,9.60
2023-05-17T16:46:53.542Z,9.80
2023-05-17T16:49:20.493Z,9.40
2023-05-17T16:51:47.508Z,9.90
2023-05-17T16:54:14.477Z,9.60
2023-05-17T16:56:41.395Z,9.60
2023-05-17T16:59:08.579Z,9.70
2023-05-17T17:01:35.590Z,9.90
2023-05-17T17:04:03.546Z,9.70
2023-05-17T17:06:31.561Z,9.70
2023-05-17T17:08:58.577Z,9.60
2023-05-17T17:11:26.241Z,9.60
2023-05-17T17:13:53.623Z,9.60
2023-05-17T17:16:21.215Z,9.60
2023-05-17T17:18:49.677Z,9.70
2023-05-17T17:21:17.261Z,9.60
2023-05-17T17:23:44.534Z,9.60
2023-05-17T17:26:11.548Z,9.50
2023-05-17T17:28:38.734Z,9.50
2023-05-17T17:31:06.671Z,9.50
2023-05-17T17:33:34.256Z,9.60
2023-05-17T17:36:02.095Z,9.50
2023-05-17T17:38:29.318Z,9.50
2023-05-17T17:40:56.241Z,9.60
2023-05-17T17:43:23.213Z,9.80
2023-05-17T17:45:50.248Z,9.80
2023-05-17T17:48:17.173Z,9.60
2023-05-17T17:50:44.142Z,9.70
2023-05-17T17:53:11.142Z,9.50
2023-05-17T17:55:38.085Z,9.40
2023-05-17T17:58:05.178Z,9.40
2023-05-17T18:00:32.367Z,9.40
2023-05-17T18:02:59.679Z,9.40
2023-05-17T18:05:26.874Z,9.40
2023-05-17T18:07:53.928Z,9.40
2023-05-17T18:10:21.074Z,9.50
2023-05-17T18:12:48.676Z,9.50
2023-05-17T18:15:17.282Z,9.50
2023-05-17T18:17:44.501Z,9.30
2023-05-17T18:20:11.574Z,9.20
2023-05-17T18:22:38.640Z,9.20
2023-05-17T18:25:06.011Z,9.30
2023-05-17T18:27:32.969Z,9.10
2023-05-17T18:29:59.933Z,9.30
2023-05-17T18:32:26.895Z,9.10
2023-05-17T18:34:55.046Z,9.10
2023-05-17T18:37:22.225Z,9.00
2023-05-17T18:39:49.350Z,9.00
2023-05-17T18:42:16.401Z,9.20
2023-05-17T18:44:43.279Z,9.10
2023-05-17T18:47:10.721Z,8.80
2023-05-17T18:49:40.568Z,8.90
2023-05-17T18:52:07.657Z,8.90
2023-05-17T18:54:34.637Z,8.90
2023-05-17T18:57:01.715Z,8.80
2023-05-17T18:59:28.668Z,8.90
2023-05-17T19:01:55.625Z,8.80
2023-05-17T19:04:22.828Z,8.70
2023-05-17T19:06:49.855Z,8.70
2023-05-17T19:09:16.886Z,8.70
2023-05-17T19:11:43.858Z,8.60
2023-05-17T19:14:11.513Z,8.60
2023-05-17T19:16:38.420Z,8.50
2023-05-17T19:19:06.517Z,8.80
2023-05-17T19:21:33.955Z,8.60
2023-05-17T19:24:01.063Z,8.50
2023-05-17T19:26:28.016Z,8.60
2023-05-17T19:28:54.931Z,8.60
2023-05-17T19:31:22.029Z,8.50
2023-05-17T19:33:48.969Z,8.40
2023-05-17T19:36:16.024Z,8.40
2023-05-17T19:38:42.976Z,8.40
2023-05-17T19:41:09.921Z,8.30
2023-05-17T19:43:37.016Z,8.30
2023-05-17T19:46:04.079Z,8.20
2023-05-17T19:48:31.112Z,8.40
2023-05-17T19:50:58.103Z,8.30
2023-05-17T19:53:25.271Z,8.20
2023-05-17T19:55:52.572Z,8.10
2023-05-17T19:58:19.556Z,8.10
2023-05-17T20:00:46.562Z,8.10
2023-05-17T20:03:13.621Z,8.00
2023-05-17T20:05:40.605Z,8.00
2023-05-17T20:08:09.094Z,8.10
2023-05-17T20:10:36.686Z,7.90
2023-05-17T20:13:03.650Z,8.10
2023-05-17T20:15:30.630Z,8.00
2023-05-17T20:17:58.272Z,8.00
2023-05-17T20:20:25.971Z,8.00
2023-05-17T20:22:52.895Z,8.00
2023-05-17T20:25:19.852Z,8.00
2023-05-17T20:27:47.320Z,7.90
2023-05-17T20:30:14.560Z,7.90
2023-05-17T20:32:41.787Z,7.80
2023-05-17T20:35:09.117Z,8.00
2023-05-17T20:37:36.272Z,7.80
2023-05-17T20:40:04.799Z,7.90
2023-05-17T20:42:32.631Z,7.70
2023-05-17T20:44:59.588Z,8.30
2023-05-17T20:47:26.628Z,7.60
2023-05-17T20:49:53.963Z,7.70
2023-05-17T20:52:38.132Z,7.80
2023-05-17T20:55:08.107Z,7.80
2023-05-17T20:57:35.230Z,7.70
2023-05-17T21:00:02.434Z,7.60
2023-05-17T21:02:29.392Z,7.50
2023-05-17T21:04:56.342Z,7.80
2023-05-17T21:07:26.587Z,7.70
2023-05-17T21:09:53.487Z,7.80
2023-05-17T21:12:22.396Z,7.70
2023-05-17T21:15:03.588Z,7.60
2023-05-17T21:17:31.542Z,7.70
2023-05-17T21:19:58.575Z,7.60
2023-05-17T21:22:25.555Z,7.60
2023-05-17T21:24:52.954Z,7.70
2023-05-17T21:27:19.902Z,7.60
2023-05-17T21:29:46.924Z,7.60
2023-05-17T21:32:13.800Z,7.50
2023-05-17T21:34:43.317Z,7.50
2023-05-17T21:37:10.431Z,7.60
2023-05-17T21:39:37.458Z,7.50
2023-05-17T21:42:04.729Z,7.40
2023-05-17T21:44:31.640Z,7.40
2023-05-17T21:46:59.182Z,7.50
2023-05-17T21:49:26.192Z,7.40
2023-05-17T21:51:53.114Z,7.50
2023-05-17T21:54:20.209Z,7.50
2023-05-17T21:56:47.036Z,7.60
2023-05-17T21:59:14.074Z,7.30
2023-05-17T22:01:41.279Z,7.40
2023-05-17T22:04:09.340Z,7.30
2023-05-17T22:06:36.518Z,7.70
2023-05-17T22:09:04.649Z,7.30
2023-05-17T22:11:31.683Z,7.30
2023-05-17T22:13:58.580Z,7.20
2023-05-17T22:16:25.790Z,7.30
2023-05-17T22:18:52.983Z,7.30
2023-05-17T22:21:20.019Z,7.30
2023-05-17T22:23:47.024Z,7.30
2023-05-17T22:26:13.948Z,7.30
2023-05-17T22:28:40.931Z,7.40
2023-05-17T22:31:08.130Z,7.30
2023-05-17T22:33:38.426Z,7.30
2023-05-17T22:36:05.567Z,7.30
2023-05-17T22:38:32.520Z,7.20
2023-05-17T22:40:59.449Z,7.50
2023-05-17T22:43:28.126Z,7.30
2023-05-17T22:45:59.844Z,7.30
2023-05-17T22:48:30.314Z,7.20
2023-05-17T22:50:58.934Z,7.30
2023-05-17T22:53:26.082Z,7.20
2023-05-17T22:55:53.008Z,7.40
2023-05-17T22:58:20.098Z,7.20
2023-05-17T23:00:50.846Z,7.20
2023-05-17T23:03:21.372Z,7.20
2023-05-17T23:05:48.535Z,7.70
2023-05-17T23:08:16.524Z,7.20
2023-05-17T23:10:46.353Z,7.10
2023-05-17T23:13:13.984Z,7.10
2023-05-17T23:15:46.192Z,7.20
2023-05-17T23:18:13.095Z,7.10
2023-05-17T23:20:40.383Z,7.00
2023-05-17T23:23:08.455Z,7.00
2023-05-17T23:25:35.469Z,7.10
2023-05-17T23:28:04.498Z,6.90
2023-05-17T23:30:32.529Z,7.00
2023-05-17T23:33:00.233Z,7.10
2023-05-17T23:35:27.506Z,6.90
2023-05-17T23:37:54.646Z,7.20
2023-05-17T23:40:21.596Z,7.00
2023-05-17T23:42:48.664Z,7.00
2023-05-17T23:45:15.604Z,6.90
2023-05-17T23:47:42.539Z,6.80
2023-05-17T23:50:10.020Z,6.80
2023-05-17T23:52:39.209Z,6.90
2023-05-17T23:55:07.383Z,6.90
2023-05-17T23:57:35.374Z,6.90
